Have a Safe July 4th! 

Flight Track Log - Related Links

Times and Time Zones

All times are in EDT time to prevent confusion due to time zone crossing. See the N43044 flight status page for this flight to view local times or setup timezone preferences in your user account.

Time Position Orientation Groundspeed Altitude Reporting Facility
EDT Latitude Longitude Course Direction KTS MPH feet Rate Location/Type
Fri 05:00:51 PM 41.7058 -93.5433 24° Northeast 106 122 2,400  Level Minneapolis Center
Fri 05:01:52 PM 41.7372 -93.5425 North 107 123 3,100 645 Climbing Minneapolis Center
Fri 05:02:52 PM 41.7642 -93.5444 357° North 102 117 3,700 614 Climbing Minneapolis Center
Fri 05:03:59 PM 41.7956 -93.5439 North 102 117 4,400 656 Climbing Minneapolis Center
Fri 05:05:00 PM 41.8225 -93.5458 357° North 99 114 5,100 645 Climbing Minneapolis Center
Fri 05:06:00 PM 41.8517 -93.5453 North 96 110 5,700 595 Climbing Minneapolis Center
Fri 05:07:01 PM 41.8789 -93.5444 North 100 115 6,300 541 Climbing Minneapolis Center
Fri 05:08:02 PM 41.9061 -93.5494 352° North 96 110 6,800 393 Climbing Minneapolis Center
Fri 05:09:03 PM 41.9353 -93.5486 North 108 124 7,100 146 Climbing Minneapolis Center
Fri 05:10:05 PM 41.9728 -93.5478 North 130 150 7,100  Level Minneapolis Center
Fri 05:11:04 PM 42.0081 -93.5411 North 130 150 7,100  Level Minneapolis Center
Fri 05:12:05 PM 42.0433 -93.5264 17° North 129 148 7,100 -41 Level Minneapolis Center
Fri 05:13:31 PM 42.0861 -93.5181 North 131 151 7,000 -41 Descending Minneapolis Center
Fri 05:14:33 PM 42.1247 -93.5100 North 131 151 7,000 144 Level Minneapolis Center
Fri 05:15:36 PM 42.1597 -93.5028 North 128 147 7,300 432 Climbing Minneapolis Center
Fri 05:16:38 PM 42.1911 -93.4981 North 109 125 7,900 484 Climbing Minneapolis Center
Fri 05:17:40 PM 42.2200 -93.4942 North 108 124 8,300 435 Climbing Minneapolis Center
Fri 05:18:42 PM 42.2483 -93.4853 13° North 99 114 8,800 339 Climbing Minneapolis Center
Fri 05:19:44 PM 42.2778 -93.4786 10° North 108 124 9,000 97 Climbing Minneapolis Center
Fri 05:20:46 PM 42.3147 -93.4742 North 121 139 9,000  Level Minneapolis Center
Fri 05:21:48 PM 42.3492 -93.4686 North 125 144 9,000  Level Minneapolis Center
Fri 05:22:50 PM 42.3833 -93.4681 North 122 140 9,000  Level Minneapolis Center
Fri 05:23:52 PM 42.4200 -93.4567 13° North 125 144 9,000  Level Minneapolis Center
Fri 05:24:54 PM 42.4547 -93.4481 10° North 126 145 9,000 48 Level Minneapolis Center
Fri 05:25:57 PM 42.4847 -93.4411 10° North 126 145 9,100 96 Climbing Minneapolis Center
Fri 05:26:59 PM 42.5275 -93.4311 10° North 128 147 9,200  Climbing Minneapolis Center
Fri 05:28:01 PM 42.5619 -93.4239 North 128 147 9,100 -48 Descending Minneapolis Center
Fri 05:29:03 PM 42.5944 -93.4167 North 126 145 9,100  Level Minneapolis Center
Fri 05:30:05 PM 42.6283 -93.4086 10° North 124 143 9,100 -48 Level Minneapolis Center
Fri 05:31:07 PM 42.6633 -93.4019 North 125 144 9,000 -48 Descending Minneapolis Center
Fri 05:32:09 PM 42.7039 -93.3897 12° North 125 144 9,000 48 Level Minneapolis Center
Fri 05:33:11 PM 42.7378 -93.3864 North 124 143 9,100 48 Climbing Minneapolis Center
Fri 05:34:13 PM 42.7708 -93.3839 North 122 140 9,100  Level Minneapolis Center
Fri 05:35:15 PM 42.8056 -93.3778 North 124 143 9,100  Level Minneapolis Center
Fri 05:36:17 PM 42.8461 -93.3758 North 123 142 9,100  Level Minneapolis Center
Fri 05:37:20 PM 42.8811 -93.3683 North 126 145 9,100 -48 Level Minneapolis Center
Fri 05:38:22 PM 42.9150 -93.3583 12° North 127 146 9,000  Descending Minneapolis Center
Fri 05:39:24 PM 42.9500 -93.3517 North 128 147 9,100 48 Climbing Minneapolis Center
Fri 05:40:26 PM 42.9836 -93.3422 12° North 125 144 9,100  Level Minneapolis Center
Fri 05:41:28 PM 43.0250 -93.3350 North 126 145 9,100  Level Minneapolis Center
Fri 05:42:30 PM 43.0589 -93.3292 North 125 144 9,100  Level Minneapolis Center
Fri 05:43:32 PM 43.0922 -93.3264 North 122 140 9,100  Level Minneapolis Center
Fri 05:44:34 PM 43.1261 -93.3269 359° North 122 140 9,100  Level Minneapolis Center
Fri 05:45:36 PM 43.1600 -93.3281 359° North 122 140 9,100  Level Minneapolis Center
Fri 05:46:38 PM 43.2017 -93.3222 North 125 144 9,100  Level Minneapolis Center
Fri 05:47:41 PM 43.2361 -93.3172 North 125 144 9,100  Level Minneapolis Center
Fri 05:48:43 PM 43.2694 -93.3125 North 124 143 9,100  Level Minneapolis Center
Fri 05:49:45 PM 43.3028 -93.3100 North 122 140 9,100 -48 Level Minneapolis Center
Fri 05:50:47 PM 43.3367 -93.3050 North 123 142 9,000  Descending Minneapolis Center
Fri 05:51:49 PM 43.3769 -93.2947 11° North 122 140 9,100 48 Climbing Minneapolis Center
Fri 05:52:51 PM 43.4106 -93.2944 360° North 123 142 9,100  Level Minneapolis Center
Fri 05:53:53 PM 43.4447 -93.2931 North 123 142 9,100  Level Minneapolis Center
Fri 05:54:55 PM 43.4786 -93.2892 North 123 142 9,100 -48 Level Minneapolis Center
Fri 05:55:57 PM 43.5139 -93.2831 North 125 144 9,000  Descending Minneapolis Center
Fri 05:56:59 PM 43.5572 -93.2756 North 127 146 9,100 48 Climbing Minneapolis Center
Fri 05:58:02 PM 43.5908 -93.2694 North 125 144 9,100  Level Minneapolis Center
Fri 05:59:08 PM 43.6256 -93.2656 North 124 143 9,100 -47 Level Minneapolis Center
Fri 06:00:10 PM 43.6603 -93.2633 North 125 144 9,000  Descending Minneapolis Center
Fri 06:01:12 PM 43.7014 -93.2653 358° North 123 142 9,100 48 Climbing Minneapolis Center
Fri 06:02:14 PM 43.7361 -93.2653 360° North 124 143 9,100  Level Minneapolis Center
Fri 06:03:16 PM 43.7706 -93.2683 356° North 125 144 9,100  Level Minneapolis Center
Fri 06:04:19 PM 43.8053 -93.2719 356° North 124 143 9,100  Level Minneapolis Center
Fri 06:05:21 PM 43.8447 -93.2642 North 125 144 9,100  Level Minneapolis Center
Fri 06:06:23 PM 43.8800 -93.2589 North 128 147 9,100 -242 Level Minneapolis Center
Fri 06:07:25 PM 43.9197 -93.2558 North 134 154 8,600 -484 Descending Minneapolis Center
Fri 06:08:27 PM 43.9611 -93.2561 360° North 139 160 8,100 -484 Descending Minneapolis Center
Fri 06:09:29 PM 44.0006 -93.2539 North 143 165 7,600 -532 Descending Minneapolis Center
Fri 06:10:31 PM 44.0428 -93.2503 North 143 165 7,000 -532 Descending Minneapolis Center
Fri 06:11:33 PM 44.0778 -93.2481 North 147 169 6,500 -435 Descending Minneapolis Center
Fri 06:12:35 PM 44.1264 -93.2444 North 145 167 6,100 -242 Descending Minneapolis Center
Fri 06:13:37 PM 44.1661 -93.2406 North 142 163 6,000  Descending Minneapolis Center
Fri 06:14:39 PM 44.2033 -93.2381 North 136 157 6,100 48 Climbing Minneapolis Center
Fri 06:15:42 PM 44.2422 -93.2317 North 140 161 6,100 -48 Level Minneapolis Center
Fri 06:16:44 PM 44.2808 -93.2269 North 140 161 6,000 -48 Descending Minneapolis Center
Fri 06:17:46 PM 44.3181 -93.2425 343° North 139 160 6,000 -97 Level Minneapolis Center
Fri 06:18:48 PM 44.3628 -93.2617 343° North 139 160 5,800 -339 Descending Minneapolis Center
Fri 06:19:50 PM 44.4019 -93.2769 344° North 145 167 5,300 -484 Descending Minneapolis Center
Fri 06:20:52 PM 44.4419 -93.2944 343° North 149 171 4,800 -581 Descending Minneapolis Center
Fri 06:21:54 PM 44.4822 -93.3125 342° North 151 174 4,100 -387 Descending Minneapolis Center
Fri 06:22:56 PM 44.5197 -93.3275 344° North 142 163 4,000 -48 Descending Minneapolis Center
Fri 06:23:58 PM 44.5556 -93.3419 344° North 135 155 4,000  Level Minneapolis Center
Fri 06:25:00 PM 44.5986 -93.3589 344° North 133 153 4,000  Level Minneapolis Center
Fri 06:26:03 PM 44.6303 -93.3881 327° Northwest 136 157 4,000  Level Minneapolis Center
Fri 06:27:05 PM 44.6614 -93.4183 325° Northwest 135 155 4,000  Level Minneapolis Center
Fri 06:28:07 PM 44.6931 -93.4472 327° Northwest 135 155 4,000  Level Minneapolis Center
Fri 06:29:09 PM 44.7269 -93.4489 358° North 132 152 4,000  Level Minneapolis Center
Fri 06:30:11 PM 44.7569 -93.4258 29° Northeast 124 143 4,000  Level Minneapolis Center
Fri 06:31:13 PM 44.7853 -93.3936 39° Northeast 128 147 4,000  Level Minneapolis Center
Fri 06:32:15 PM 44.8183 -93.3564 39° Northeast 125 144 4,000 48 Level Minneapolis Center
Fri 06:33:17 PM 44.8453 -93.3242 40° Northeast 126 145 4,100  Climbing Minneapolis Center
Fri 06:34:19 PM 44.8736 -93.2911 40° Northeast 132 152 4,000  Descending Minneapolis Center
Fri 06:35:21 PM 44.9008 -93.2600 39° Northeast 126 145 4,100  Climbing Minneapolis Center
Fri 06:36:23 PM 44.9297 -93.2292 37° Northeast 129 148 4,000  Descending Minneapolis Center
Fri 06:37:26 PM 44.9603 -93.2006 34° Northeast 131 151 4,100 -48 Climbing Minneapolis Center
Fri 06:38:29 PM 45.0069 -93.2025 358° North 140 161 3,900 -240 Descending Minneapolis Center
Fri 06:39:31 PM 45.0439 -93.2089 353° North 142 163 3,600 -435 Descending Minneapolis Center
Fri 06:40:33 PM 45.0778 -93.2369 330° Northwest 143 165 3,000 -581 Descending Minneapolis Center
Fri 06:41:35 PM 45.1136 -93.2539 342° North 138 159 2,400 -484 Descending Minneapolis Center
Fri 06:42:37 PM 45.1508 -93.2539 360° North 135 155 2,000 -290 Descending Minneapolis Center
Fri 06:43:39 PM 45.1686 -93.2283 45° Northeast 104 120 1,800 -435 Descending Minneapolis Center
Fri 06:44:41 PM 45.1564 -93.2089 132° Southeast 73 84 1,100 -677 Descending Minneapolis Center
Fri 06:46:00 PM 45.1449 -93.2102 161° South  Level Estimated

Login

Don't have an account? Register now (free) for customized features, flight alerts, and more!